sensor_id;sensor_type;location;lat;lon;timestamp;P1;durP1;ratioP1;P2;durP2;ratioP2
73682;SDS011;72538;48.146;11.740;2024-02-26T00:00:27;11.23;;;9.07;;
73682;SDS011;72538;48.146;11.740;2024-02-26T00:02:54;8.97;;;7.93;;
73682;SDS011;72538;48.146;11.740;2024-02-26T00:05:20;9.13;;;8.03;;
73682;SDS011;72538;48.146;11.740;2024-02-26T00:07:46;8.27;;;7.37;;
73682;SDS011;72538;48.146;11.740;2024-02-26T00:10:13;10.80;;;8.40;;
73682;SDS011;72538;48.146;11.740;2024-02-26T00:12:39;9.43;;;7.70;;
73682;SDS011;72538;48.146;11.740;2024-02-26T00:15:06;7.93;;;7.07;;
73682;SDS011;72538;48.146;11.740;2024-02-26T00:17:32;10.50;;;8.37;;
73682;SDS011;72538;48.146;11.740;2024-02-26T00:19:58;8.90;;;6.90;;
73682;SDS011;72538;48.146;11.740;2024-02-26T00:22:26;9.87;;;6.90;;
73682;SDS011;72538;48.146;11.740;2024-02-26T00:24:52;9.20;;;7.33;;
73682;SDS011;72538;48.146;11.740;2024-02-26T00:27:18;8.63;;;7.03;;
73682;SDS011;72538;48.146;11.740;2024-02-26T00:29:45;7.90;;;7.13;;
73682;SDS011;72538;48.146;11.740;2024-02-26T00:32:11;8.70;;;7.50;;
73682;SDS011;72538;48.146;11.740;2024-02-26T00:34:37;8.67;;;6.53;;
73682;SDS011;72538;48.146;11.740;2024-02-26T00:37:03;7.27;;;6.57;;
73682;SDS011;72538;48.146;11.740;2024-02-26T00:39:29;7.97;;;6.90;;
73682;SDS011;72538;48.146;11.740;2024-02-26T00:41:56;7.67;;;6.63;;
73682;SDS011;72538;48.146;11.740;2024-02-26T00:44:22;7.83;;;6.67;;
73682;SDS011;72538;48.146;11.740;2024-02-26T00:46:49;7.63;;;6.80;;
73682;SDS011;72538;48.146;11.740;2024-02-26T00:49:15;8.53;;;6.60;;
73682;SDS011;72538;48.146;11.740;2024-02-26T00:51:41;7.40;;;6.27;;
73682;SDS011;72538;48.146;11.740;2024-02-26T00:54:07;8.73;;;5.73;;
73682;SDS011;72538;48.146;11.740;2024-02-26T00:56:33;6.03;;;5.43;;
73682;SDS011;72538;48.146;11.740;2024-02-26T00:59:00;7.40;;;6.07;;
73682;SDS011;72538;48.146;11.740;2024-02-26T01:01:26;6.33;;;4.90;;
73682;SDS011;72538;48.146;11.740;2024-02-26T01:03:52;7.43;;;5.00;;
73682;SDS011;72538;48.146;11.740;2024-02-26T01:06:18;6.07;;;5.30;;
73682;SDS011;72538;48.146;11.740;2024-02-26T01:08:44;6.83;;;6.07;;
73682;SDS011;72538;48.146;11.740;2024-02-26T01:11:10;5.73;;;5.17;;
73682;SDS011;72538;48.146;11.740;2024-02-26T01:13:37;7.57;;;5.50;;
73682;SDS011;72538;48.146;11.740;2024-02-26T01:16:03;6.30;;;4.90;;
73682;SDS011;72538;48.146;11.740;2024-02-26T01:18:29;5.53;;;5.03;;
73682;SDS011;72538;48.146;11.740;2024-02-26T01:20:55;5.60;;;5.07;;
73682;SDS011;72538;48.146;11.740;2024-02-26T01:23:22;6.00;;;5.00;;
73682;SDS011;72538;48.146;11.740;2024-02-26T01:25:48;5.50;;;4.90;;
73682;SDS011;72538;48.146;11.740;2024-02-26T01:28:14;7.43;;;5.33;;
73682;SDS011;72538;48.146;11.740;2024-02-26T01:30:40;6.43;;;4.90;;
73682;SDS011;72538;48.146;11.740;2024-02-26T01:33:06;5.57;;;4.97;;
73682;SDS011;72538;48.146;11.740;2024-02-26T01:35:33;7.97;;;5.37;;
73682;SDS011;72538;48.146;11.740;2024-02-26T01:37:59;7.20;;;5.47;;
73682;SDS011;72538;48.146;11.740;2024-02-26T01:40:28;5.47;;;4.97;;
73682;SDS011;72538;48.146;11.740;2024-02-26T01:42:55;7.80;;;4.60;;
73682;SDS011;72538;48.146;11.740;2024-02-26T01:45:21;5.97;;;4.70;;
73682;SDS011;72538;48.146;11.740;2024-02-26T01:47:49;7.77;;;6.60;;
73682;SDS011;72538;48.146;11.740;2024-02-26T01:50:16;5.60;;;4.93;;
73682;SDS011;72538;48.146;11.740;2024-02-26T01:52:42;5.20;;;4.70;;
73682;SDS011;72538;48.146;11.740;2024-02-26T01:55:09;5.10;;;4.70;;
73682;SDS011;72538;48.146;11.740;2024-02-26T01:57:35;6.07;;;4.80;;
73682;SDS011;72538;48.146;11.740;2024-02-26T02:00:02;5.97;;;5.10;;
73682;SDS011;72538;48.146;11.740;2024-02-26T02:02:30;6.33;;;4.33;;
73682;SDS011;72538;48.146;11.740;2024-02-26T02:04:56;7.40;;;4.93;;
73682;SDS011;72538;48.146;11.740;2024-02-26T02:07:22;4.83;;;4.37;;
73682;SDS011;72538;48.146;11.740;2024-02-26T02:09:48;6.60;;;4.57;;
73682;SDS011;72538;48.146;11.740;2024-02-26T02:12:14;5.73;;;4.33;;
73682;SDS011;72538;48.146;11.740;2024-02-26T02:14:41;5.47;;;4.60;;
73682;SDS011;72538;48.146;11.740;2024-02-26T02:17:07;4.27;;;3.87;;
73682;SDS011;72538;48.146;11.740;2024-02-26T02:19:33;5.77;;;4.53;;
73682;SDS011;72538;48.146;11.740;2024-02-26T02:21:59;4.57;;;3.97;;
73682;SDS011;72538;48.146;11.740;2024-02-26T02:24:26;4.83;;;3.77;;
73682;SDS011;72538;48.146;11.740;2024-02-26T02:26:52;5.27;;;3.77;;
73682;SDS011;72538;48.146;11.740;2024-02-26T02:29:18;4.23;;;3.60;;
73682;SDS011;72538;48.146;11.740;2024-02-26T02:31:44;5.37;;;3.63;;
73682;SDS011;72538;48.146;11.740;2024-02-26T02:34:10;3.43;;;3.13;;
73682;SDS011;72538;48.146;11.740;2024-02-26T02:36:48;3.80;;;3.40;;
73682;SDS011;72538;48.146;11.740;2024-02-26T02:39:04;3.20;;;2.93;;
73682;SDS011;72538;48.146;11.740;2024-02-26T02:41:31;5.33;;;3.10;;
73682;SDS011;72538;48.146;11.740;2024-02-26T02:43:57;3.03;;;2.70;;
73682;SDS011;72538;48.146;11.740;2024-02-26T02:46:23;3.47;;;3.17;;
73682;SDS011;72538;48.146;11.740;2024-02-26T02:48:49;3.67;;;3.10;;
73682;SDS011;72538;48.146;11.740;2024-02-26T02:51:16;3.23;;;2.93;;
73682;SDS011;72538;48.146;11.740;2024-02-26T02:53:42;3.43;;;3.13;;
73682;SDS011;72538;48.146;11.740;2024-02-26T02:56:08;5.20;;;3.13;;
73682;SDS011;72538;48.146;11.740;2024-02-26T02:58:34;2.93;;;2.73;;
73682;SDS011;72538;48.146;11.740;2024-02-26T03:01:00;4.40;;;3.07;;
73682;SDS011;72538;48.146;11.740;2024-02-26T03:03:26;3.20;;;2.90;;
73682;SDS011;72538;48.146;11.740;2024-02-26T03:05:54;3.07;;;2.77;;
73682;SDS011;72538;48.146;11.740;2024-02-26T03:08:21;4.77;;;2.97;;
73682;SDS011;72538;48.146;11.740;2024-02-26T03:10:47;4.73;;;3.30;;
73682;SDS011;72538;48.146;11.740;2024-02-26T03:13:13;3.80;;;3.37;;
73682;SDS011;72538;48.146;11.740;2024-02-26T03:15:39;3.97;;;2.83;;
73682;SDS011;72538;48.146;11.740;2024-02-26T03:18:05;3.27;;;2.77;;
73682;SDS011;72538;48.146;11.740;2024-02-26T03:20:31;5.87;;;3.20;;
73682;SDS011;72538;48.146;11.740;2024-02-26T03:22:57;3.67;;;3.00;;
73682;SDS011;72538;48.146;11.740;2024-02-26T03:25:24;3.93;;;3.20;;
73682;SDS011;72538;48.146;11.740;2024-02-26T03:27:50;4.90;;;3.13;;
73682;SDS011;72538;48.146;11.740;2024-02-26T03:30:16;4.30;;;3.20;;
73682;SDS011;72538;48.146;11.740;2024-02-26T03:32:42;3.80;;;3.20;;
73682;SDS011;72538;48.146;11.740;2024-02-26T03:35:08;5.97;;;3.10;;
73682;SDS011;72538;48.146;11.740;2024-02-26T03:37:35;3.00;;;2.60;;
73682;SDS011;72538;48.146;11.740;2024-02-26T03:40:01;2.77;;;2.47;;
73682;SDS011;72538;48.146;11.740;2024-02-26T03:42:27;3.47;;;2.80;;
73682;SDS011;72538;48.146;11.740;2024-02-26T03:44:53;3.57;;;2.80;;
73682;SDS011;72538;48.146;11.740;2024-02-26T03:47:19;3.77;;;3.00;;
73682;SDS011;72538;48.146;11.740;2024-02-26T03:49:45;3.10;;;2.80;;
73682;SDS011;72538;48.146;11.740;2024-02-26T03:52:12;2.93;;;2.70;;
73682;SDS011;72538;48.146;11.740;2024-02-26T03:54:38;2.97;;;2.60;;
73682;SDS011;72538;48.146;11.740;2024-02-26T03:57:04;3.40;;;2.70;;
73682;SDS011;72538;48.146;11.740;2024-02-26T03:59:30;3.17;;;2.87;;
73682;SDS011;72538;48.146;11.740;2024-02-26T04:01:56;8.83;;;3.03;;
73682;SDS011;72538;48.146;11.740;2024-02-26T04:04:22;3.03;;;2.47;;
73682;SDS011;72538;48.146;11.740;2024-02-26T04:06:49;3.83;;;2.70;;
73682;SDS011;72538;48.146;11.740;2024-02-26T04:09:15;3.37;;;3.07;;
73682;SDS011;72538;48.146;11.740;2024-02-26T04:11:41;4.20;;;3.20;;
73682;SDS011;72538;48.146;11.740;2024-02-26T04:14:09;4.33;;;3.37;;
73682;SDS011;72538;48.146;11.740;2024-02-26T04:16:37;3.77;;;3.27;;
73682;SDS011;72538;48.146;11.740;2024-02-26T04:19:03;3.57;;;3.20;;
73682;SDS011;72538;48.146;11.740;2024-02-26T04:21:29;5.60;;;3.17;;
73682;SDS011;72538;48.146;11.740;2024-02-26T04:23:55;4.73;;;3.50;;
73682;SDS011;72538;48.146;11.740;2024-02-26T04:26:21;3.97;;;3.13;;
73682;SDS011;72538;48.146;11.740;2024-02-26T04:28:47;3.33;;;2.97;;
73682;SDS011;72538;48.146;11.740;2024-02-26T04:31:13;3.77;;;3.47;;
73682;SDS011;72538;48.146;11.740;2024-02-26T04:33:40;3.73;;;3.33;;
73682;SDS011;72538;48.146;11.740;2024-02-26T04:36:12;3.93;;;3.27;;
73682;SDS011;72538;48.146;11.740;2024-02-26T04:38:36;3.87;;;3.20;;
73682;SDS011;72538;48.146;11.740;2024-02-26T04:41:02;3.50;;;2.80;;
73682;SDS011;72538;48.146;11.740;2024-02-26T04:43:28;4.10;;;3.20;;
73682;SDS011;72538;48.146;11.740;2024-02-26T04:45:54;3.77;;;2.93;;
73682;SDS011;72538;48.146;11.740;2024-02-26T04:48:22;3.80;;;3.03;;
73682;SDS011;72538;48.146;11.740;2024-02-26T04:50:49;3.47;;;3.03;;
73682;SDS011;72538;48.146;11.740;2024-02-26T04:53:15;3.53;;;3.10;;
73682;SDS011;72538;48.146;11.740;2024-02-26T04:55:41;4.20;;;3.70;;
73682;SDS011;72538;48.146;11.740;2024-02-26T04:58:07;4.00;;;3.60;;
73682;SDS011;72538;48.146;11.740;2024-02-26T05:00:33;4.93;;;3.00;;
73682;SDS011;72538;48.146;11.740;2024-02-26T05:02:59;4.07;;;3.20;;
73682;SDS011;72538;48.146;11.740;2024-02-26T05:05:25;3.90;;;2.97;;
73682;SDS011;72538;48.146;11.740;2024-02-26T05:07:52;5.37;;;3.30;;
73682;SDS011;72538;48.146;11.740;2024-02-26T05:10:18;3.43;;;3.10;;
73682;SDS011;72538;48.146;11.740;2024-02-26T05:12:44;4.27;;;3.20;;
73682;SDS011;72538;48.146;11.740;2024-02-26T05:15:10;3.40;;;3.10;;
73682;SDS011;72538;48.146;11.740;2024-02-26T05:17:36;3.87;;;2.97;;
73682;SDS011;72538;48.146;11.740;2024-02-26T05:20:03;5.20;;;3.07;;
73682;SDS011;72538;48.146;11.740;2024-02-26T05:22:29;4.67;;;2.93;;
73682;SDS011;72538;48.146;11.740;2024-02-26T05:24:55;3.43;;;3.00;;
73682;SDS011;72538;48.146;11.740;2024-02-26T05:27:22;3.20;;;2.90;;
73682;SDS011;72538;48.146;11.740;2024-02-26T05:29:48;4.67;;;3.37;;
73682;SDS011;72538;48.146;11.740;2024-02-26T05:32:14;3.37;;;2.73;;
73682;SDS011;72538;48.146;11.740;2024-02-26T05:34:40;4.30;;;3.00;;
73682;SDS011;72538;48.146;11.740;2024-02-26T05:37:07;3.87;;;3.20;;
73682;SDS011;72538;48.146;11.740;2024-02-26T05:39:33;5.10;;;3.13;;
73682;SDS011;72538;48.146;11.740;2024-02-26T05:41:59;4.60;;;3.40;;
73682;SDS011;72538;48.146;11.740;2024-02-26T05:44:27;5.67;;;3.10;;
73682;SDS011;72538;48.146;11.740;2024-02-26T05:46:53;4.37;;;3.10;;
73682;SDS011;72538;48.146;11.740;2024-02-26T05:49:19;4.30;;;3.20;;
73682;SDS011;72538;48.146;11.740;2024-02-26T05:51:45;3.60;;;3.27;;
73682;SDS011;72538;48.146;11.740;2024-02-26T05:54:12;3.73;;;3.33;;
73682;SDS011;72538;48.146;11.740;2024-02-26T05:56:38;4.67;;;3.60;;
73682;SDS011;72538;48.146;11.740;2024-02-26T05:59:04;4.03;;;3.10;;
73682;SDS011;72538;48.146;11.740;2024-02-26T06:01:31;3.43;;;3.10;;
73682;SDS011;72538;48.146;11.740;2024-02-26T06:03:57;4.20;;;3.23;;
73682;SDS011;72538;48.146;11.740;2024-02-26T06:06:23;4.67;;;3.63;;
73682;SDS011;72538;48.146;11.740;2024-02-26T06:08:49;4.07;;;3.00;;
73682;SDS011;72538;48.146;11.740;2024-02-26T06:11:15;4.53;;;3.13;;
73682;SDS011;72538;48.146;11.740;2024-02-26T06:13:42;5.80;;;3.50;;
73682;SDS011;72538;48.146;11.740;2024-02-26T06:16:08;4.50;;;3.33;;
73682;SDS011;72538;48.146;11.740;2024-02-26T06:18:34;3.47;;;3.00;;
73682;SDS011;72538;48.146;11.740;2024-02-26T06:21:00;4.17;;;2.83;;
73682;SDS011;72538;48.146;11.740;2024-02-26T06:23:27;3.80;;;3.37;;
73682;SDS011;72538;48.146;11.740;2024-02-26T06:25:53;2.97;;;2.67;;
73682;SDS011;72538;48.146;11.740;2024-02-26T06:28:19;3.47;;;2.97;;
73682;SDS011;72538;48.146;11.740;2024-02-26T06:30:45;4.93;;;2.90;;
73682;SDS011;72538;48.146;11.740;2024-02-26T06:33:12;2.97;;;2.67;;
73682;SDS011;72538;48.146;11.740;2024-02-26T06:35:38;4.73;;;3.50;;
73682;SDS011;72538;48.146;11.740;2024-02-26T06:38:04;3.67;;;2.90;;
73682;SDS011;72538;48.146;11.740;2024-02-26T06:40:30;4.70;;;2.97;;
73682;SDS011;72538;48.146;11.740;2024-02-26T06:42:56;3.00;;;2.50;;
73682;SDS011;72538;48.146;11.740;2024-02-26T06:45:23;6.80;;;3.37;;
73682;SDS011;72538;48.146;11.740;2024-02-26T06:47:49;4.67;;;3.23;;
73682;SDS011;72538;48.146;11.740;2024-02-26T06:50:15;3.60;;;3.13;;
73682;SDS011;72538;48.146;11.740;2024-02-26T06:52:43;4.03;;;2.80;;
73682;SDS011;72538;48.146;11.740;2024-02-26T06:55:09;3.57;;;2.77;;
73682;SDS011;72538;48.146;11.740;2024-02-26T06:57:35;4.30;;;2.80;;
73682;SDS011;72538;48.146;11.740;2024-02-26T07:00:01;4.60;;;3.07;;
73682;SDS011;72538;48.146;11.740;2024-02-26T07:02:29;4.87;;;2.80;;
73682;SDS011;72538;48.146;11.740;2024-02-26T07:04:56;4.67;;;2.83;;
73682;SDS011;72538;48.146;11.740;2024-02-26T07:07:24;3.40;;;3.10;;
73682;SDS011;72538;48.146;11.740;2024-02-26T07:09:50;4.90;;;2.80;;
73682;SDS011;72538;48.146;11.740;2024-02-26T07:12:17;2.87;;;2.67;;
73682;SDS011;72538;48.146;11.740;2024-02-26T07:14:45;7.37;;;3.17;;
73682;SDS011;72538;48.146;11.740;2024-02-26T07:17:11;8.50;;;2.97;;
73682;SDS011;72538;48.146;11.740;2024-02-26T07:19:38;5.70;;;2.73;;
73682;SDS011;72538;48.146;11.740;2024-02-26T07:22:04;5.10;;;3.07;;
73682;SDS011;72538;48.146;11.740;2024-02-26T07:24:30;3.10;;;2.80;;
73682;SDS011;72538;48.146;11.740;2024-02-26T07:26:56;6.13;;;3.23;;
73682;SDS011;72538;48.146;11.740;2024-02-26T07:29:22;4.93;;;3.60;;
73682;SDS011;72538;48.146;11.740;2024-02-26T07:31:48;5.07;;;3.10;;
73682;SDS011;72538;48.146;11.740;2024-02-26T07:34:14;5.80;;;3.23;;
73682;SDS011;72538;48.146;11.740;2024-02-26T07:36:40;5.47;;;3.07;;
73682;SDS011;72538;48.146;11.740;2024-02-26T07:39:06;8.13;;;3.00;;
73682;SDS011;72538;48.146;11.740;2024-02-26T07:41:33;6.63;;;2.70;;
73682;SDS011;72538;48.146;11.740;2024-02-26T07:43:59;4.17;;;3.23;;
73682;SDS011;72538;48.146;11.740;2024-02-26T07:46:25;9.50;;;3.20;;
73682;SDS011;72538;48.146;11.740;2024-02-26T07:48:51;8.80;;;4.23;;
73682;SDS011;72538;48.146;11.740;2024-02-26T07:51:17;9.67;;;3.27;;
73682;SDS011;72538;48.146;11.740;2024-02-26T07:53:43;4.27;;;3.10;;
73682;SDS011;72538;48.146;11.740;2024-02-26T07:56:09;4.03;;;2.63;;
73682;SDS011;72538;48.146;11.740;2024-02-26T07:58:35;4.23;;;3.30;;
73682;SDS011;72538;48.146;11.740;2024-02-26T08:01:02;3.23;;;2.90;;
73682;SDS011;72538;48.146;11.740;2024-02-26T08:03:28;4.83;;;3.17;;
73682;SDS011;72538;48.146;11.740;2024-02-26T08:05:54;3.57;;;3.00;;
73682;SDS011;72538;48.146;11.740;2024-02-26T08:08:21;4.53;;;2.83;;
73682;SDS011;72538;48.146;11.740;2024-02-26T08:10:47;4.20;;;2.57;;
73682;SDS011;72538;48.146;11.740;2024-02-26T08:13:13;6.57;;;3.00;;
73682;SDS011;72538;48.146;11.740;2024-02-26T08:15:39;6.33;;;2.77;;
73682;SDS011;72538;48.146;11.740;2024-02-26T08:18:05;4.13;;;2.70;;
73682;SDS011;72538;48.146;11.740;2024-02-26T08:20:31;5.20;;;2.77;;
73682;SDS011;72538;48.146;11.740;2024-02-26T08:22:58;4.47;;;3.27;;
73682;SDS011;72538;48.146;11.740;2024-02-26T08:25:24;3.47;;;2.70;;
73682;SDS011;72538;48.146;11.740;2024-02-26T08:27:51;3.50;;;2.87;;
73682;SDS011;72538;48.146;11.740;2024-02-26T08:30:17;3.90;;;3.10;;
73682;SDS011;72538;48.146;11.740;2024-02-26T08:32:43;3.93;;;3.50;;
73682;SDS011;72538;48.146;11.740;2024-02-26T08:35:10;5.70;;;3.50;;
73682;SDS011;72538;48.146;11.740;2024-02-26T08:37:37;6.53;;;2.80;;
73682;SDS011;72538;48.146;11.740;2024-02-26T08:40:03;4.03;;;2.67;;
73682;SDS011;72538;48.146;11.740;2024-02-26T08:42:29;5.60;;;2.80;;
73682;SDS011;72538;48.146;11.740;2024-02-26T08:44:56;4.93;;;2.83;;
73682;SDS011;72538;48.146;11.740;2024-02-26T08:47:22;3.13;;;2.83;;
73682;SDS011;72538;48.146;11.740;2024-02-26T08:49:48;5.07;;;3.37;;
73682;SDS011;72538;48.146;11.740;2024-02-26T08:52:14;3.37;;;2.57;;
73682;SDS011;72538;48.146;11.740;2024-02-26T08:54:41;2.87;;;2.60;;
73682;SDS011;72538;48.146;11.740;2024-02-26T08:57:07;5.23;;;3.00;;
73682;SDS011;72538;48.146;11.740;2024-02-26T08:59:33;3.07;;;2.40;;
73682;SDS011;72538;48.146;11.740;2024-02-26T09:02:00;3.83;;;2.67;;
73682;SDS011;72538;48.146;11.740;2024-02-26T09:04:26;2.87;;;2.60;;
73682;SDS011;72538;48.146;11.740;2024-02-26T09:06:53;2.80;;;2.50;;
73682;SDS011;72538;48.146;11.740;2024-02-26T09:09:20;2.20;;;2.00;;
73682;SDS011;72538;48.146;11.740;2024-02-26T09:11:48;3.53;;;2.47;;
73682;SDS011;72538;48.146;11.740;2024-02-26T09:14:16;5.70;;;2.37;;
73682;SDS011;72538;48.146;11.740;2024-02-26T09:16:42;3.07;;;2.00;;
73682;SDS011;72538;48.146;11.740;2024-02-26T09:19:08;3.27;;;2.10;;
73682;SDS011;72538;48.146;11.740;2024-02-26T09:21:34;2.77;;;2.00;;
73682;SDS011;72538;48.146;11.740;2024-02-26T09:24:00;3.33;;;1.93;;
73682;SDS011;72538;48.146;11.740;2024-02-26T09:26:26;3.70;;;1.90;;
73682;SDS011;72538;48.146;11.740;2024-02-26T09:28:52;1.70;;;1.60;;
73682;SDS011;72538;48.146;11.740;2024-02-26T09:31:19;2.13;;;1.87;;
73682;SDS011;72538;48.146;11.740;2024-02-26T09:33:45;2.07;;;1.87;;
73682;SDS011;72538;48.146;11.740;2024-02-26T09:36:12;2.03;;;1.83;;
73682;SDS011;72538;48.146;11.740;2024-02-26T09:38:38;3.03;;;1.80;;
73682;SDS011;72538;48.146;11.740;2024-02-26T09:41:05;1.87;;;1.73;;
73682;SDS011;72538;48.146;11.740;2024-02-26T09:43:36;2.47;;;2.00;;
73682;SDS011;72538;48.146;11.740;2024-02-26T09:45:59;3.13;;;1.90;;
73682;SDS011;72538;48.146;11.740;2024-02-26T09:48:26;1.63;;;1.53;;
73682;SDS011;72538;48.146;11.740;2024-02-26T09:50:52;2.67;;;1.57;;
73682;SDS011;72538;48.146;11.740;2024-02-26T09:53:18;2.67;;;1.80;;
73682;SDS011;72538;48.146;11.740;2024-02-26T09:55:46;2.37;;;1.60;;
73682;SDS011;72538;48.146;11.740;2024-02-26T09:58:12;1.87;;;1.77;;
73682;SDS011;72538;48.146;11.740;2024-02-26T10:00:40;1.87;;;1.40;;
73682;SDS011;72538;48.146;11.740;2024-02-26T10:03:09;1.63;;;1.47;;
73682;SDS011;72538;48.146;11.740;2024-02-26T10:05:35;1.93;;;1.60;;
73682;SDS011;72538;48.146;11.740;2024-02-26T10:08:03;1.77;;;1.60;;
73682;SDS011;72538;48.146;11.740;2024-02-26T10:10:30;1.80;;;1.70;;
73682;SDS011;72538;48.146;11.740;2024-02-26T10:12:58;2.00;;;1.90;;
73682;SDS011;72538;48.146;11.740;2024-02-26T10:15:25;2.07;;;1.60;;
73682;SDS011;72538;48.146;11.740;2024-02-26T10:17:51;4.10;;;1.60;;
73682;SDS011;72538;48.146;11.740;2024-02-26T10:20:18;1.97;;;1.50;;
73682;SDS011;72538;48.146;11.740;2024-02-26T10:22:47;2.60;;;1.67;;
73682;SDS011;72538;48.146;11.740;2024-02-26T10:25:13;1.30;;;1.20;;
73682;SDS011;72538;48.146;11.740;2024-02-26T10:27:40;1.60;;;1.50;;
73682;SDS011;72538;48.146;11.740;2024-02-26T10:30:16;1.40;;;1.30;;
73682;SDS011;72538;48.146;11.740;2024-02-26T10:32:44;2.13;;;1.30;;
73682;SDS011;72538;48.146;11.740;2024-02-26T10:35:11;1.73;;;1.30;;
73682;SDS011;72538;48.146;11.740;2024-02-26T10:37:38;1.40;;;1.30;;
73682;SDS011;72538;48.146;11.740;2024-02-26T10:40:05;2.43;;;1.27;;
73682;SDS011;72538;48.146;11.740;2024-02-26T10:42:32;1.40;;;1.27;;
73682;SDS011;72538;48.146;11.740;2024-02-26T10:44:58;1.20;;;1.10;;
73682;SDS011;72538;48.146;11.740;2024-02-26T10:47:24;3.13;;;2.07;;
73682;SDS011;72538;48.146;11.740;2024-02-26T10:49:50;1.20;;;1.10;;
73682;SDS011;72538;48.146;11.740;2024-02-26T10:52:17;1.53;;;1.23;;
73682;SDS011;72538;48.146;11.740;2024-02-26T10:54:45;1.40;;;1.30;;
73682;SDS011;72538;48.146;11.740;2024-02-26T10:57:13;2.13;;;1.20;;
73682;SDS011;72538;48.146;11.740;2024-02-26T10:59:40;0.97;;;0.90;;
73682;SDS011;72538;48.146;11.740;2024-02-26T11:02:07;3.07;;;1.30;;
73682;SDS011;72538;48.146;11.740;2024-02-26T11:04:36;2.30;;;1.50;;
73682;SDS011;72538;48.146;11.740;2024-02-26T11:07:02;2.73;;;1.13;;
73682;SDS011;72538;48.146;11.740;2024-02-26T11:09:30;1.33;;;1.23;;
73682;SDS011;72538;48.146;11.740;2024-02-26T11:11:57;1.67;;;1.20;;
73682;SDS011;72538;48.146;11.740;2024-02-26T11:14:25;1.50;;;1.23;;
73682;SDS011;72538;48.146;11.740;2024-02-26T11:16:52;1.97;;;1.30;;
73682;SDS011;72538;48.146;11.740;2024-02-26T11:19:18;2.77;;;1.30;;
73682;SDS011;72538;48.146;11.740;2024-02-26T11:21:45;2.03;;;1.20;;
73682;SDS011;72538;48.146;11.740;2024-02-26T11:24:12;2.50;;;1.30;;
73682;SDS011;72538;48.146;11.740;2024-02-26T11:26:41;1.40;;;1.20;;
73682;SDS011;72538;48.146;11.740;2024-02-26T11:29:07;1.37;;;1.27;;
73682;SDS011;72538;48.146;11.740;2024-02-26T11:31:36;1.57;;;1.30;;
73682;SDS011;72538;48.146;11.740;2024-02-26T11:34:03;1.43;;;1.17;;
73682;SDS011;72538;48.146;11.740;2024-02-26T11:36:29;1.02;;;0.90;;
73682;SDS011;72538;48.146;11.740;2024-02-26T11:38:55;1.60;;;1.10;;
73682;SDS011;72538;48.146;11.740;2024-02-26T11:41:22;1.23;;;1.13;;
73682;SDS011;72538;48.146;11.740;2024-02-26T11:46:27;2.00;;;1.30;;
73682;SDS011;72538;48.146;11.740;2024-02-26T11:49:00;1.90;;;1.20;;
73682;SDS011;72538;48.146;11.740;2024-02-26T11:51:32;1.93;;;1.40;;
73682;SDS011;72538;48.146;11.740;2024-02-26T11:53:52;1.40;;;1.10;;
73682;SDS011;72538;48.146;11.740;2024-02-26T11:58:48;1.85;;;1.20;;
73682;SDS011;72538;48.146;11.740;2024-02-26T12:04:04;1.40;;;1.30;;
73682;SDS011;72538;48.146;11.740;2024-02-26T12:06:29;1.50;;;1.40;;
73682;SDS011;72538;48.146;11.740;2024-02-26T12:08:56;1.57;;;1.47;;
73682;SDS011;72538;48.146;11.740;2024-02-26T12:11:22;1.32;;;1.22;;
73682;SDS011;72538;48.146;11.740;2024-02-26T12:13:48;3.10;;;1.25;;
73682;SDS011;72538;48.146;11.740;2024-02-26T12:16:36;1.47;;;1.37;;
73682;SDS011;72538;48.146;11.740;2024-02-26T12:19:06;1.90;;;1.55;;
73682;SDS011;72538;48.146;11.740;2024-02-26T12:21:33;1.30;;;1.25;;
73682;SDS011;72538;48.146;11.740;2024-02-26T12:24:07;1.40;;;1.30;;
73682;SDS011;72538;48.146;11.740;2024-02-26T12:26:33;2.25;;;1.52;;
73682;SDS011;72538;48.146;11.740;2024-02-26T12:29:00;1.40;;;1.30;;
73682;SDS011;72538;48.146;11.740;2024-02-26T12:31:26;1.40;;;1.30;;
73682;SDS011;72538;48.146;11.740;2024-02-26T12:33:54;1.80;;;1.10;;
73682;SDS011;72538;48.146;11.740;2024-02-26T12:36:21;1.20;;;1.10;;
73682;SDS011;72538;48.146;11.740;2024-02-26T12:38:53;1.20;;;1.10;;
73682;SDS011;72538;48.146;11.740;2024-02-26T12:41:17;1.27;;;1.20;;
73682;SDS011;72538;48.146;11.740;2024-02-26T12:43:43;2.85;;;1.25;;
73682;SDS011;72538;48.146;11.740;2024-02-26T12:46:11;2.12;;;1.50;;
73682;SDS011;72538;48.146;11.740;2024-02-26T12:48:38;1.55;;;1.45;;
73682;SDS011;72538;48.146;11.740;2024-02-26T12:51:05;4.90;;;3.52;;
73682;SDS011;72538;48.146;11.740;2024-02-26T12:53:32;5.95;;;4.20;;
73682;SDS011;72538;48.146;11.740;2024-02-26T12:55:58;4.58;;;4.00;;
73682;SDS011;72538;48.146;11.740;2024-02-26T12:58:24;4.97;;;4.50;;
73682;SDS011;72538;48.146;11.740;2024-02-26T13:00:51;5.45;;;4.60;;
73682;SDS011;72538;48.146;11.740;2024-02-26T13:03:18;5.78;;;5.28;;
73682;SDS011;72538;48.146;11.740;2024-02-26T13:05:44;6.05;;;5.40;;
73682;SDS011;72538;48.146;11.740;2024-02-26T13:08:17;5.00;;;4.60;;
73682;SDS011;72538;48.146;11.740;2024-02-26T13:10:38;7.42;;;4.03;;
73682;SDS011;72538;48.146;11.740;2024-02-26T13:13:04;6.17;;;3.70;;
73682;SDS011;72538;48.146;11.740;2024-02-26T13:15:31;3.83;;;3.52;;
73682;SDS011;72538;48.146;11.740;2024-02-26T13:17:58;4.50;;;4.00;;
73682;SDS011;72538;48.146;11.740;2024-02-26T13:20:28;4.87;;;4.20;;
73682;SDS011;72538;48.146;11.740;2024-02-26T13:23:04;6.22;;;4.17;;
73682;SDS011;72538;48.146;11.740;2024-02-26T13:25:31;4.22;;;3.85;;
73682;SDS011;72538;48.146;11.740;2024-02-26T13:28:31;4.45;;;3.60;;
73682;SDS011;72538;48.146;11.740;2024-02-26T13:30:32;8.33;;;3.75;;
73682;SDS011;72538;48.146;11.740;2024-02-26T13:33:06;4.62;;;3.37;;
73682;SDS011;72538;48.146;11.740;2024-02-26T13:35:26;4.92;;;3.90;;
73682;SDS011;72538;48.146;11.740;2024-02-26T13:37:52;3.92;;;3.62;;
73682;SDS011;72538;48.146;11.740;2024-02-26T13:40:18;6.83;;;4.03;;
73682;SDS011;72538;48.146;11.740;2024-02-26T13:42:46;7.75;;;5.12;;
73682;SDS011;72538;48.146;11.740;2024-02-26T13:45:14;5.35;;;4.78;;
73682;SDS011;72538;48.146;11.740;2024-02-26T13:47:40;4.00;;;3.70;;
73682;SDS011;72538;48.146;11.740;2024-02-26T13:50:07;4.90;;;4.50;;
73682;SDS011;72538;48.146;11.740;2024-02-26T13:52:33;4.47;;;4.08;;
73682;SDS011;72538;48.146;11.740;2024-02-26T13:55:00;3.65;;;3.35;;
73682;SDS011;72538;48.146;11.740;2024-02-26T13:57:26;3.40;;;3.10;;
73682;SDS011;72538;48.146;11.740;2024-02-26T13:59:52;3.62;;;3.33;;
73682;SDS011;72538;48.146;11.740;2024-02-26T14:02:19;3.65;;;3.30;;
73682;SDS011;72538;48.146;11.740;2024-02-26T14:04:45;4.22;;;3.42;;
73682;SDS011;72538;48.146;11.740;2024-02-26T14:07:12;8.95;;;5.58;;
73682;SDS011;72538;48.146;11.740;2024-02-26T14:09:38;4.92;;;3.70;;
73682;SDS011;72538;48.146;11.740;2024-02-26T14:12:05;8.53;;;5.10;;
73682;SDS011;72538;48.146;11.740;2024-02-26T14:14:31;14.90;;;4.50;;
73682;SDS011;72538;48.146;11.740;2024-02-26T14:16:59;10.60;;;4.70;;
73682;SDS011;72538;48.146;11.740;2024-02-26T14:19:26;5.60;;;3.67;;
73682;SDS011;72538;48.146;11.740;2024-02-26T14:21:52;3.47;;;2.80;;
73682;SDS011;72538;48.146;11.740;2024-02-26T14:24:18;3.87;;;3.13;;
73682;SDS011;72538;48.146;11.740;2024-02-26T14:26:44;6.50;;;5.30;;
73682;SDS011;72538;48.146;11.740;2024-02-26T14:29:10;3.63;;;2.70;;
73682;SDS011;72538;48.146;11.740;2024-02-26T14:31:36;3.07;;;2.80;;
73682;SDS011;72538;48.146;11.740;2024-02-26T14:34:03;3.37;;;2.83;;
73682;SDS011;72538;48.146;11.740;2024-02-26T14:36:29;4.33;;;3.03;;